createdAt,value
2023-01-13T00:00:50.855Z,96168.16
2023-01-13T00:03:17.509Z,96166.19
2023-01-13T00:05:44.067Z,96154.63
2023-01-13T00:08:10.795Z,96171.06
2023-01-13T00:10:37.368Z,96161.75
2023-01-13T00:13:05.345Z,96180.06
2023-01-13T00:15:33.687Z,96175.50
2023-01-13T00:18:00.337Z,96166.19
2023-01-13T00:20:26.997Z,96163.41
2023-01-13T00:22:53.646Z,96156.41
2023-01-13T00:25:20.197Z,96132.59
2023-01-13T00:27:46.813Z,96141.19
2023-01-13T00:30:13.755Z,96139.72
2023-01-13T00:32:40.377Z,96139.41
2023-01-13T00:35:07.549Z,96139.06
2023-01-13T00:37:37.013Z,96136.19
2023-01-13T00:40:04.556Z,96142.66
2023-01-13T00:42:49.599Z,96128.81
2023-01-13T00:45:16.129Z,96127.00
2023-01-13T00:47:42.774Z,96121.31
2023-01-13T00:50:10.256Z,96127.88
2023-01-13T00:52:36.802Z,96119.53
2023-01-13T00:55:03.676Z,96127.19
2023-01-13T00:57:30.225Z,96125.06
2023-01-13T00:59:56.841Z,96125.38
2023-01-13T01:02:23.463Z,96132.13
2023-01-13T01:04:50.130Z,96126.75
2023-01-13T01:07:16.904Z,96133.22
2023-01-13T01:09:43.517Z,96132.63
2023-01-13T01:12:10.109Z,96130.97
2023-01-13T01:14:36.718Z,96134.19
2023-01-13T01:17:03.324Z,96135.28
2023-01-13T01:19:29.886Z,96136.09
2023-01-13T01:21:56.472Z,96139.31
2023-01-13T01:24:23.135Z,96134.84
2023-01-13T01:26:49.737Z,96136.44
2023-01-13T01:29:16.424Z,96135.53
2023-01-13T01:31:43.437Z,96132.03
2023-01-13T01:34:10.444Z,96139.09
2023-01-13T01:36:37.006Z,96132.34
2023-01-13T01:39:04.247Z,96124.81
2023-01-13T01:41:32.933Z,96121.25
2023-01-13T01:44:43.594Z,96121.91
2023-01-13T01:47:14.642Z,96132.97
2023-01-13T01:49:42.741Z,96130.50
2023-01-13T01:52:14.694Z,96134.53
2023-01-13T01:54:44.220Z,96123.91
2023-01-13T01:57:15.917Z,96125.44
2023-01-13T01:59:43.293Z,96116.50
2023-01-13T02:02:10.610Z,96108.06
2023-01-13T02:04:40.672Z,96114.97
2023-01-13T02:07:08.152Z,96107.00
2023-01-13T02:09:36.104Z,96101.00
2023-01-13T02:12:20.931Z,96096.97
2023-01-13T02:14:47.815Z,96090.06
2023-01-13T02:17:41.713Z,96088.50
2023-01-13T02:20:39.724Z,96089.06
2023-01-13T02:23:43.133Z,96080.94
2023-01-13T02:26:15.641Z,96075.66
2023-01-13T02:29:22.037Z,96083.38
2023-01-13T02:31:51.141Z,96075.41
2023-01-13T02:34:28.011Z,96070.34
2023-01-13T02:37:04.910Z,96076.50
2023-01-13T02:39:41.666Z,96063.91
2023-01-13T02:42:42.406Z,96071.25
2023-01-13T02:45:42.043Z,96063.53
2023-01-13T02:48:10.052Z,96067.84
2023-01-13T02:50:46.818Z,96049.91
2023-01-13T02:53:23.337Z,96062.56
2023-01-13T02:55:53.501Z,96059.03
2023-01-13T02:58:24.877Z,96057.53
2023-01-13T03:00:51.706Z,96048.28
2023-01-13T03:03:18.462Z,96053.19
2023-01-13T03:05:48.327Z,96037.16
2023-01-13T03:08:29.634Z,96046.19
2023-01-13T03:11:08.772Z,96035.91
2023-01-13T03:13:54.040Z,96034.06
2023-01-13T03:16:47.287Z,96031.63
2023-01-13T03:19:16.511Z,96039.16
2023-01-13T03:22:07.816Z,96033.59
2023-01-13T03:24:43.099Z,96015.97
2023-01-13T03:27:27.958Z,96018.41
2023-01-13T03:30:04.382Z,96022.22
2023-01-13T03:32:38.774Z,96023.72
2023-01-13T03:35:14.385Z,96021.44
2023-01-13T03:37:43.797Z,96016.97
2023-01-13T03:40:15.576Z,96015.13
2023-01-13T03:43:05.932Z,96010.97
2023-01-13T03:45:35.814Z,96012.53
2023-01-13T03:48:10.890Z,96015.94
2023-01-13T03:50:51.549Z,96012.09
2023-01-13T03:53:24.172Z,96010.09
2023-01-13T03:55:57.599Z,95998.44
2023-01-13T03:58:29.156Z,96001.19
2023-01-13T04:01:01.261Z,96004.09
2023-01-13T04:03:55.943Z,96000.25
2023-01-13T04:06:45.430Z,96007.63
2023-01-13T04:09:23.809Z,95996.97
2023-01-13T04:11:59.121Z,96008.09
2023-01-13T04:14:28.087Z,95997.09
2023-01-13T04:16:55.223Z,96012.13
2023-01-13T04:19:22.278Z,95998.78
2023-01-13T04:21:48.784Z,95994.50
2023-01-13T04:24:15.206Z,95996.34
2023-01-13T04:26:41.663Z,96000.97
2023-01-13T04:29:08.088Z,95998.34
2023-01-13T04:31:34.560Z,95989.72
2023-01-13T04:34:01.014Z,95981.69
2023-01-13T04:36:27.726Z,95988.88
2023-01-13T04:38:57.208Z,95990.38
2023-01-13T04:41:23.672Z,95979.81
2023-01-13T04:43:50.136Z,95992.13
2023-01-13T04:46:16.655Z,95986.13
2023-01-13T04:48:43.136Z,95960.06
2023-01-13T04:51:09.612Z,95978.78
2023-01-13T04:53:36.048Z,95984.84
2023-01-13T04:56:02.511Z,95986.84
2023-01-13T04:58:28.982Z,95985.44
2023-01-13T05:00:55.560Z,95977.91
2023-01-13T05:03:24.240Z,95971.66
2023-01-13T05:05:52.070Z,95976.72
2023-01-13T05:08:18.499Z,95978.84
2023-01-13T05:10:44.930Z,95966.63
2023-01-13T05:13:29.973Z,95961.56
2023-01-13T05:16:28.677Z,95975.41
2023-01-13T05:18:55.112Z,95968.72
2023-01-13T05:21:39.951Z,95955.59
2023-01-13T05:24:26.238Z,95967.59
2023-01-13T05:26:52.700Z,95972.84
2023-01-13T05:29:19.166Z,95968.72
2023-01-13T05:31:45.604Z,95967.50
2023-01-13T05:34:12.012Z,95969.16
2023-01-13T05:36:38.443Z,95965.00
2023-01-13T05:39:05.352Z,95967.19
2023-01-13T05:41:50.196Z,95962.59
2023-01-13T05:44:16.615Z,95960.41
2023-01-13T05:46:43.089Z,95960.41
2023-01-13T05:49:09.531Z,95962.59
2023-01-13T05:51:36.028Z,95961.19
2023-01-13T05:54:02.560Z,95956.91
2023-01-13T05:56:29.001Z,95957.22
2023-01-13T05:58:55.415Z,95969.34
2023-01-13T06:01:21.890Z,95957.09
2023-01-13T06:03:48.341Z,95976.41
2023-01-13T06:06:14.797Z,95977.50
2023-01-13T06:08:41.228Z,95987.97
2023-01-13T06:11:07.926Z,95983.06
2023-01-13T06:13:34.400Z,95989.06
2023-01-13T06:16:01.275Z,95989.06
2023-01-13T06:18:27.919Z,95995.38
2023-01-13T06:20:54.611Z,95984.59
2023-01-13T06:23:21.108Z,95987.97
2023-01-13T06:26:04.166Z,95980.88
2023-01-13T06:28:30.630Z,95975.66
2023-01-13T06:31:00.960Z,95982.13
2023-01-13T06:33:32.709Z,95971.19
2023-01-13T06:36:03.355Z,95964.44
2023-01-13T06:38:37.323Z,95952.13
2023-01-13T06:41:06.992Z,95949.66
2023-01-13T06:43:33.624Z,95945.94
2023-01-13T06:46:01.721Z,95942.25
2023-01-13T06:48:35.285Z,95945.00
2023-01-13T06:51:03.706Z,95949.84
2023-01-13T06:53:30.752Z,95963.09
2023-01-13T06:55:57.172Z,95967.25
2023-01-13T06:58:23.607Z,95971.72
2023-01-13T07:00:51.430Z,95962.78
2023-01-13T07:03:19.006Z,95955.72
2023-01-13T07:05:52.885Z,95968.63
2023-01-13T07:08:19.607Z,95971.84
2023-01-13T07:10:46.355Z,95977.19
2023-01-13T07:13:31.494Z,95971.78
2023-01-13T07:16:03.034Z,95964.66
2023-01-13T07:18:34.418Z,95962.34
2023-01-13T07:21:03.869Z,95965.94
2023-01-13T07:23:32.610Z,95971.41
2023-01-13T07:26:00.125Z,95953.88
2023-01-13T07:28:28.565Z,95973.84
2023-01-13T07:30:55.171Z,95958.91
2023-01-13T07:33:21.992Z,95963.50
2023-01-13T07:35:56.814Z,95965.03
2023-01-13T07:38:23.361Z,95967.34
2023-01-13T07:40:49.777Z,95964.84
2023-01-13T07:43:34.205Z,95967.09
2023-01-13T07:46:05.903Z,95980.31
2023-01-13T07:48:34.691Z,95972.59
2023-01-13T07:51:06.199Z,95975.38
2023-01-13T07:53:32.974Z,95974.63
2023-01-13T07:56:00.176Z,95965.47
2023-01-13T07:58:27.680Z,95974.78
2023-01-13T08:00:54.703Z,95963.84
2023-01-13T08:03:22.329Z,95968.94
2023-01-13T08:05:48.901Z,95971.91
2023-01-13T08:08:16.130Z,95969.72
2023-01-13T08:10:42.583Z,95973.47
2023-01-13T08:13:17.543Z,95971.63
2023-01-13T08:15:44.911Z,95964.97
2023-01-13T08:18:11.935Z,95970.56
2023-01-13T08:20:38.637Z,95975.25
2023-01-13T08:23:07.219Z,95984.69
2023-01-13T08:25:34.004Z,95995.25
2023-01-13T08:28:00.529Z,95999.00
2023-01-13T08:30:27.823Z,95980.72
2023-01-13T08:32:54.693Z,95990.03
2023-01-13T08:35:21.361Z,95992.81
2023-01-13T08:37:48.879Z,95989.31
2023-01-13T08:40:16.511Z,95991.50
2023-01-13T08:42:43.131Z,96000.53
2023-01-13T08:45:10.976Z,96000.16
2023-01-13T08:47:37.461Z,95994.44
2023-01-13T08:50:05.293Z,95998.38
2023-01-13T08:52:31.743Z,96010.22
2023-01-13T08:54:58.279Z,96007.78
2023-01-13T08:57:24.814Z,96001.16
2023-01-13T08:59:51.382Z,96010.25
2023-01-13T09:02:21.120Z,96002.09
2023-01-13T09:04:48.824Z,96001.88
2023-01-13T09:07:16.459Z,96001.78
2023-01-13T09:09:43.216Z,96003.53
2023-01-13T09:12:33.175Z,95996.56
2023-01-13T09:15:00.123Z,96002.50
2023-01-13T09:17:27.339Z,95997.25
2023-01-13T09:19:53.829Z,96012.06
2023-01-13T09:22:20.853Z,96019.81
2023-01-13T09:24:47.437Z,96023.28
2023-01-13T09:27:15.337Z,96023.13
2023-01-13T09:29:42.922Z,96025.59
2023-01-13T09:32:13.807Z,96026.00
2023-01-13T09:34:58.925Z,96037.38
2023-01-13T09:37:26.755Z,96035.53
2023-01-13T09:39:53.334Z,96023.13
2023-01-13T09:43:00.143Z,96032.47
2023-01-13T09:45:33.832Z,96021.63
2023-01-13T09:48:09.411Z,96022.06
2023-01-13T09:50:45.745Z,96025.16
2023-01-13T09:53:19.665Z,96011.59
2023-01-13T09:55:46.280Z,96002.09
2023-01-13T09:58:16.834Z,95996.03
2023-01-13T10:00:52.310Z,96000.50
2023-01-13T10:03:24.088Z,96001.00
2023-01-13T10:05:59.860Z,96002.53
2023-01-13T10:08:36.195Z,96000.53
2023-01-13T10:11:28.765Z,95997.16
2023-01-13T10:14:15.799Z,95992.03
2023-01-13T10:17:02.952Z,95983.97
2023-01-13T10:19:36.265Z,95993.25
2023-01-13T10:22:24.657Z,95989.66
2023-01-13T10:25:03.743Z,95995.03
2023-01-13T10:27:30.304Z,95987.75
2023-01-13T10:29:57.202Z,95989.78
2023-01-13T10:32:23.775Z,95994.53
2023-01-13T10:34:51.956Z,95990.38
2023-01-13T10:37:27.022Z,95992.25
2023-01-13T10:40:01.281Z,95989.88
2023-01-13T10:42:27.762Z,95986.44
2023-01-13T10:45:00.211Z,95988.72
2023-01-13T10:47:37.190Z,95974.56
2023-01-13T10:50:08.672Z,95971.19
2023-01-13T10:52:39.950Z,95970.78
2023-01-13T10:55:33.165Z,95966.97
2023-01-13T10:58:32.024Z,95959.34
2023-01-13T11:01:02.082Z,95949.44
2023-01-13T11:03:41.796Z,95951.09
2023-01-13T11:06:09.695Z,95937.84
2023-01-13T11:08:45.470Z,95932.31
2023-01-13T11:11:37.714Z,95946.66
2023-01-13T11:14:25.527Z,95935.63
2023-01-13T11:16:57.080Z,95929.59
2023-01-13T11:19:27.567Z,95931.88
2023-01-13T11:22:12.684Z,95929.72
2023-01-13T11:24:46.323Z,95927.31
2023-01-13T11:27:34.063Z,95925.22
2023-01-13T11:30:22.212Z,95928.09
2023-01-13T11:33:10.720Z,95909.28
2023-01-13T11:36:02.029Z,95918.09
2023-01-13T11:38:31.195Z,95919.53
2023-01-13T11:41:07.962Z,95909.22
2023-01-13T11:43:53.852Z,95904.94
2023-01-13T11:46:26.417Z,95906.09
2023-01-13T11:48:56.350Z,95903.00
2023-01-13T11:51:49.023Z,95906.91
2023-01-13T11:54:24.371Z,95907.31
2023-01-13T11:57:04.071Z,95906.88
2023-01-13T11:59:54.562Z,95908.69
2023-01-13T12:02:42.359Z,95909.28
2023-01-13T12:05:14.828Z,95913.22
2023-01-13T12:07:49.118Z,95910.16
2023-01-13T12:10:26.085Z,95904.84
2023-01-13T12:13:04.728Z,95908.66
2023-01-13T12:15:48.613Z,95910.63
2023-01-13T12:18:38.130Z,95903.28
2023-01-13T12:21:17.994Z,95906.91
2023-01-13T12:23:59.818Z,95897.97
2023-01-13T12:26:29.097Z,95902.13
2023-01-13T12:28:58.244Z,95908.31
2023-01-13T12:31:25.583Z,95907.25
2023-01-13T12:33:59.056Z,95889.44
2023-01-13T12:36:31.813Z,95904.09
2023-01-13T12:39:11.298Z,95904.69
2023-01-13T12:42:05.844Z,95906.22
2023-01-13T12:44:32.347Z,95900.00
2023-01-13T12:47:00.002Z,95896.94
2023-01-13T12:49:32.360Z,95897.84
2023-01-13T12:52:13.960Z,95898.81
2023-01-13T12:54:40.370Z,95891.41
2023-01-13T12:57:24.780Z,95894.03
2023-01-13T13:00:03.438Z,95900.34
2023-01-13T13:02:40.711Z,95896.94
2023-01-13T13:05:25.447Z,95907.00
2023-01-13T13:08:04.905Z,95906.38
2023-01-13T13:10:38.687Z,95917.88
2023-01-13T13:13:21.779Z,95906.44
2023-01-13T13:15:50.819Z,95911.56
2023-01-13T13:18:17.221Z,95916.44
2023-01-13T13:21:09.016Z,95910.16
2023-01-13T13:23:56.891Z,95907.47
2023-01-13T13:26:46.754Z,95889.06
2023-01-13T13:29:39.725Z,95896.84
2023-01-13T13:32:18.265Z,95900.22
2023-01-13T13:35:07.847Z,95904.53
2023-01-13T13:38:05.228Z,95907.41
2023-01-13T13:40:58.229Z,95907.88
2023-01-13T13:43:44.208Z,95899.44
2023-01-13T13:46:47.365Z,95915.00
2023-01-13T13:49:18.496Z,95911.81
2023-01-13T13:52:19.864Z,95909.06
2023-01-13T13:54:50.573Z,95921.34
2023-01-13T13:57:20.007Z,95919.06
2023-01-13T13:59:54.749Z,95936.63
2023-01-13T14:02:28.691Z,95925.69
2023-01-13T14:05:17.142Z,95925.63
2023-01-13T14:07:49.971Z,95929.84
2023-01-13T14:10:25.765Z,95931.75
2023-01-13T14:12:52.934Z,95927.38
2023-01-13T14:15:38.996Z,95934.69
2023-01-13T14:18:12.583Z,95936.38
2023-01-13T14:20:39.856Z,95941.94
2023-01-13T14:23:06.674Z,95934.84
2023-01-13T14:25:34.922Z,95941.03
2023-01-13T14:28:23.465Z,95939.75
2023-01-13T14:30:51.616Z,95941.41
2023-01-13T14:33:23.080Z,95948.06
2023-01-13T14:36:20.786Z,95949.47
2023-01-13T14:38:50.540Z,95959.16
2023-01-13T14:41:27.543Z,95957.53
2023-01-13T14:43:57.834Z,95961.09
2023-01-13T14:46:25.604Z,95958.25
2023-01-13T14:48:59.766Z,95960.69
2023-01-13T14:51:28.716Z,95969.28
2023-01-13T14:53:57.044Z,96004.47
2023-01-13T14:56:43.432Z,96065.78
2023-01-13T14:59:51.770Z,96119.78
2023-01-13T15:02:30.689Z,96136.69
2023-01-13T15:05:18.844Z,96144.34
2023-01-13T15:07:50.193Z,96171.56
2023-01-13T15:10:18.895Z,96181.09
2023-01-13T15:12:46.425Z,96189.72
2023-01-13T15:15:32.921Z,96192.59
2023-01-13T15:18:12.483Z,96197.59
2023-01-13T15:20:40.096Z,96199.72
2023-01-13T15:23:06.521Z,96203.00
2023-01-13T15:25:34.275Z,96206.25
2023-01-13T15:28:00.943Z,96201.63
2023-01-13T15:30:28.437Z,96203.50
2023-01-13T15:32:57.167Z,96199.34
2023-01-13T15:35:26.406Z,96192.00
2023-01-13T15:37:53.000Z,96192.03
2023-01-13T15:40:21.965Z,96189.97
2023-01-13T15:43:07.428Z,96186.28
2023-01-13T15:45:54.914Z,96191.50
2023-01-13T15:48:23.103Z,96194.13
2023-01-13T15:50:50.183Z,96192.47
2023-01-13T15:53:16.841Z,96187.22
2023-01-13T15:55:46.362Z,96193.50
2023-01-13T15:58:13.941Z,96206.28
2023-01-13T16:00:41.563Z,96198.16
2023-01-13T16:03:13.835Z,96197.84
2023-01-13T16:05:41.181Z,96200.53
2023-01-13T16:08:18.914Z,96209.22
2023-01-13T16:10:46.708Z,96207.28
2023-01-13T16:13:14.428Z,96228.34
2023-01-13T16:15:44.022Z,96223.59
2023-01-13T16:18:16.820Z,96225.09
2023-01-13T16:20:43.854Z,96220.28
2023-01-13T16:23:11.268Z,96218.78
2023-01-13T16:25:38.368Z,96219.13
2023-01-13T16:28:04.918Z,96221.75
2023-01-13T16:30:36.853Z,96238.00
2023-01-13T16:33:04.059Z,96244.81
2023-01-13T16:35:32.217Z,96256.38
2023-01-13T16:37:59.793Z,96254.53
2023-01-13T16:40:33.504Z,96264.38
2023-01-13T16:43:03.156Z,96267.91
2023-01-13T16:45:31.117Z,96275.47
2023-01-13T16:47:57.743Z,96279.94
2023-01-13T16:50:33.556Z,96287.78
2023-01-13T16:52:59.988Z,96297.00
2023-01-13T16:55:27.750Z,96295.66
2023-01-13T16:57:54.779Z,96287.66
2023-01-13T17:00:21.880Z,96287.81
2023-01-13T17:02:48.512Z,96296.09
2023-01-13T17:05:15.738Z,96308.72
2023-01-13T17:07:44.675Z,96312.72
2023-01-13T17:10:16.711Z,96312.72
2023-01-13T17:12:43.069Z,96311.78
2023-01-13T17:15:14.802Z,96325.34
2023-01-13T17:17:43.401Z,96321.03
2023-01-13T17:20:14.913Z,96324.44
2023-01-13T17:22:42.436Z,96326.28
2023-01-13T17:25:12.941Z,96325.66
2023-01-13T17:27:39.484Z,96314.28
2023-01-13T17:30:06.469Z,96328.28
2023-01-13T17:32:32.885Z,96330.88
2023-01-13T17:35:01.681Z,96334.41
2023-01-13T17:37:29.508Z,96322.72
2023-01-13T17:39:55.950Z,96333.97
2023-01-13T17:42:24.124Z,96335.97
2023-01-13T17:44:51.343Z,96329.78
2023-01-13T17:47:17.767Z,96337.63
2023-01-13T17:49:44.287Z,96327.16
2023-01-13T17:52:10.765Z,96330.72
2023-01-13T17:54:37.345Z,96339.63
2023-01-13T17:57:03.815Z,96336.53
2023-01-13T17:59:30.321Z,96346.38
2023-01-13T18:01:57.178Z,96349.44
2023-01-13T18:04:28.731Z,96360.81
2023-01-13T18:06:56.919Z,96356.34
2023-01-13T18:09:23.625Z,96357.41
2023-01-13T18:11:50.179Z,96358.75
2023-01-13T18:14:16.753Z,96378.00
2023-01-13T18:16:43.610Z,96375.06
2023-01-13T18:19:29.382Z,96395.88
2023-01-13T18:22:14.796Z,96392.63
2023-01-13T18:25:00.126Z,96389.72
2023-01-13T18:27:33.351Z,96398.50
2023-01-13T18:30:01.219Z,96402.63
2023-01-13T18:32:32.866Z,96393.25
2023-01-13T18:35:06.481Z,96404.50
2023-01-13T18:37:38.761Z,96400.47
2023-01-13T18:40:06.916Z,96415.69
2023-01-13T18:42:51.431Z,96396.59
2023-01-13T18:45:24.490Z,96416.47
2023-01-13T18:47:51.710Z,96401.84
2023-01-13T18:50:18.925Z,96417.78
2023-01-13T18:52:45.440Z,96407.31
2023-01-13T18:55:11.952Z,96421.94
2023-01-13T18:57:39.960Z,96405.31
2023-01-13T19:00:09.537Z,96411.16
2023-01-13T19:02:36.854Z,96408.09
2023-01-13T19:05:03.978Z,96410.88
2023-01-13T19:07:31.983Z,96402.22
2023-01-13T19:09:59.569Z,96418.22
2023-01-13T19:12:27.497Z,96420.88
2023-01-13T19:14:55.225Z,96421.34
2023-01-13T19:17:23.552Z,96423.50
2023-01-13T19:19:52.649Z,96413.31
2023-01-13T19:22:24.439Z,96415.78
2023-01-13T19:24:50.875Z,96411.50
2023-01-13T19:27:19.188Z,96426.44
2023-01-13T19:29:51.984Z,96422.72
2023-01-13T19:32:21.147Z,96432.41
2023-01-13T19:34:50.702Z,96433.72
2023-01-13T19:37:18.047Z,96439.31
2023-01-13T19:39:44.604Z,96441.63
2023-01-13T19:42:41.320Z,96454.69
2023-01-13T19:45:27.859Z,96450.88
2023-01-13T19:47:55.673Z,96457.16
2023-01-13T19:50:22.356Z,96435.66
2023-01-13T19:52:48.832Z,96449.25
2023-01-13T19:55:15.298Z,96455.88
2023-01-13T19:57:41.800Z,96453.28
2023-01-13T20:00:10.675Z,96457.75
2023-01-13T20:02:37.388Z,96449.28
2023-01-13T20:05:06.470Z,96460.09
2023-01-13T20:07:33.769Z,96465.66
2023-01-13T20:10:01.609Z,96464.28
2023-01-13T20:12:29.143Z,96461.81
2023-01-13T20:14:56.251Z,96474.59
2023-01-13T20:17:22.913Z,96479.06
2023-01-13T20:19:49.394Z,96458.41
2023-01-13T20:22:15.878Z,96477.06
2023-01-13T20:24:42.452Z,96480.91
2023-01-13T20:27:09.410Z,96473.34
2023-01-13T20:29:35.859Z,96477.81
2023-01-13T20:32:02.769Z,96487.31
2023-01-13T20:34:29.771Z,96485.97
2023-01-13T20:36:56.463Z,96491.03
2023-01-13T20:39:26.307Z,96487.03
2023-01-13T20:42:11.812Z,96490.88
2023-01-13T20:44:39.352Z,96488.91
2023-01-13T20:47:06.404Z,96480.28
2023-01-13T20:49:34.364Z,96476.44
2023-01-13T20:52:01.065Z,96479.41
2023-01-13T20:54:27.574Z,96491.38
2023-01-13T20:56:54.154Z,96484.78
2023-01-13T20:59:20.907Z,96486.13
2023-01-13T21:01:47.474Z,96481.69
2023-01-13T21:04:14.017Z,96497.72
2023-01-13T21:06:41.603Z,96500.66
2023-01-13T21:09:08.899Z,96489.28
2023-01-13T21:11:54.623Z,96499.47
2023-01-13T21:14:42.576Z,96493.31
2023-01-13T21:17:30.082Z,96506.41
2023-01-13T21:19:56.903Z,96509.50
2023-01-13T21:22:23.469Z,96506.41
2023-01-13T21:24:49.960Z,96506.41
2023-01-13T21:27:16.527Z,96511.34
2023-01-13T21:29:44.566Z,96513.03
2023-01-13T21:32:11.377Z,96509.03
2023-01-13T21:34:38.148Z,96500.72
2023-01-13T21:37:04.564Z,96519.66
2023-01-13T21:39:31.002Z,96519.50
2023-01-13T21:42:15.942Z,96534.94
2023-01-13T21:45:01.305Z,96524.75
2023-01-13T21:47:46.116Z,96542.16
2023-01-13T21:50:14.874Z,96524.28
2023-01-13T21:52:44.608Z,96516.25
2023-01-13T21:55:25.399Z,96532.00
2023-01-13T21:57:54.727Z,96530.59
2023-01-13T22:00:23.028Z,96517.50
2023-01-13T22:02:49.863Z,96521.50
2023-01-13T22:05:18.335Z,96533.69
2023-01-13T22:07:44.847Z,96520.72
2023-01-13T22:10:17.461Z,96541.38
2023-01-13T22:12:43.924Z,96556.75
2023-01-13T22:15:13.012Z,96558.75
2023-01-13T22:17:41.035Z,96556.16
2023-01-13T22:20:10.485Z,96567.22
2023-01-13T22:22:37.116Z,96561.41
2023-01-13T22:25:06.982Z,96580.19
2023-01-13T22:27:39.368Z,96578.03
2023-01-13T22:32:48.296Z,96588.00
2023-01-13T22:35:15.820Z,96575.53
2023-01-13T22:37:42.984Z,96591.28
2023-01-13T22:40:11.680Z,96589.41
2023-01-13T22:42:39.895Z,96592.97
2023-01-13T22:45:09.881Z,96609.59
2023-01-13T22:47:36.416Z,96578.75
2023-01-13T22:50:03.419Z,96590.78
2023-01-13T22:52:30.349Z,96591.84
2023-01-13T22:54:56.934Z,96593.06
2023-01-13T22:57:23.960Z,96598.94
2023-01-13T22:59:50.566Z,96604.59
2023-01-13T23:02:17.077Z,96602.25
2023-01-13T23:04:43.806Z,96605.38
2023-01-13T23:07:10.361Z,96606.00
2023-01-13T23:09:36.838Z,96604.00
2023-01-13T23:12:03.663Z,96615.56
2023-01-13T23:14:30.353Z,96621.66
2023-01-13T23:16:56.865Z,96620.41
2023-01-13T23:19:23.406Z,96624.41
2023-01-13T23:21:49.833Z,96621.41
2023-01-13T23:24:16.285Z,96615.59
2023-01-13T23:26:42.769Z,96622.34
2023-01-13T23:29:12.103Z,96632.06
2023-01-13T23:31:39.035Z,96636.06
2023-01-13T23:34:05.520Z,96641.19
2023-01-13T23:36:32.111Z,96642.50
2023-01-13T23:38:59.665Z,96636.47
2023-01-13T23:41:27.666Z,96641.91
2023-01-13T23:43:59.755Z,96652.63
2023-01-13T23:46:27.082Z,96653.50
2023-01-13T23:48:55.141Z,96658.63
2023-01-13T23:51:22.013Z,96666.06
2023-01-13T23:53:50.045Z,96662.69
2023-01-13T23:56:19.852Z,96668.81
2023-01-13T23:58:46.714Z,96672.53
